sensor_id;sensor_type;location;lat;lon;timestamp;pressure;altitude;pressure_sealevel;temperature;humidity
36242;BME280;22283;42.748;12.732;2022-10-31T00:02:35;98773.63;;;9.35;100.00
36242;BME280;22283;42.748;12.732;2022-10-31T00:07:36;98773.81;;;9.16;100.00
36242;BME280;22283;42.748;12.732;2022-10-31T00:12:36;98771.88;;;9.20;100.00
36242;BME280;22283;42.748;12.732;2022-10-31T00:17:37;98776.72;;;9.11;100.00
36242;BME280;22283;42.748;12.732;2022-10-31T00:22:38;98766.19;;;9.11;100.00
36242;BME280;22283;42.748;12.732;2022-10-31T00:27:39;98772.31;;;9.12;100.00
36242;BME280;22283;42.748;12.732;2022-10-31T00:32:39;98775.69;;;9.14;100.00
36242;BME280;22283;42.748;12.732;2022-10-31T00:37:40;98774.38;;;9.07;100.00
36242;BME280;22283;42.748;12.732;2022-10-31T00:42:41;98775.53;;;9.01;100.00
36242;BME280;22283;42.748;12.732;2022-10-31T00:47:43;98775.03;;;8.95;100.00
36242;BME280;22283;42.748;12.732;2022-10-31T00:52:43;98781.50;;;8.89;100.00
36242;BME280;22283;42.748;12.732;2022-10-31T00:57:46;98782.34;;;8.90;100.00
36242;BME280;22283;42.748;12.732;2022-10-31T01:02:48;98770.28;;;8.85;100.00
36242;BME280;22283;42.748;12.732;2022-10-31T01:07:49;98775.56;;;8.85;100.00
36242;BME280;22283;42.748;12.732;2022-10-31T01:12:50;98781.19;;;8.79;100.00
36242;BME280;22283;42.748;12.732;2022-10-31T01:17:50;98780.16;;;8.82;100.00
36242;BME280;22283;42.748;12.732;2022-10-31T01:22:51;98779.41;;;8.80;100.00
36242;BME280;22283;42.748;12.732;2022-10-31T01:27:52;98772.66;;;8.74;100.00
36242;BME280;22283;42.748;12.732;2022-10-31T01:32:52;98777.03;;;8.75;100.00
36242;BME280;22283;42.748;12.732;2022-10-31T01:37:53;98775.03;;;8.79;100.00
36242;BME280;22283;42.748;12.732;2022-10-31T01:42:53;98777.59;;;8.80;100.00
36242;BME280;22283;42.748;12.732;2022-10-31T01:47:54;98781.59;;;8.72;100.00
36242;BME280;22283;42.748;12.732;2022-10-31T01:52:55;98777.91;;;8.58;100.00
36242;BME280;22283;42.748;12.732;2022-10-31T01:58:07;98778.09;;;8.40;100.00
36242;BME280;22283;42.748;12.732;2022-10-31T02:03:08;98789.22;;;8.27;100.00
36242;BME280;22283;42.748;12.732;2022-10-31T02:08:17;98775.81;;;8.16;100.00
36242;BME280;22283;42.748;12.732;2022-10-31T02:13:23;98782.06;;;8.13;100.00
36242;BME280;22283;42.748;12.732;2022-10-31T02:18:27;98778.66;;;8.11;100.00
36242;BME280;22283;42.748;12.732;2022-10-31T02:34:55;98771.19;;;8.04;100.00
36242;BME280;22283;42.748;12.732;2022-10-31T02:46:09;98770.63;;;7.97;100.00
36242;BME280;22283;42.748;12.732;2022-10-31T02:51:13;98763.78;;;7.77;100.00
36242;BME280;22283;42.748;12.732;2022-10-31T02:56:19;98765.16;;;7.67;100.00
36242;BME280;22283;42.748;12.732;2022-10-31T03:01:38;98756.19;;;7.54;100.00
36242;BME280;22283;42.748;12.732;2022-10-31T03:06:51;98766.88;;;7.51;100.00
36242;BME280;22283;42.748;12.732;2022-10-31T03:12:04;98765.56;;;7.59;100.00
36242;BME280;22283;42.748;12.732;2022-10-31T03:17:24;98773.69;;;7.55;100.00
36242;BME280;22283;42.748;12.732;2022-10-31T03:22:29;98771.53;;;7.46;100.00
36242;BME280;22283;42.748;12.732;2022-10-31T03:27:34;98776.19;;;7.41;100.00
36242;BME280;22283;42.748;12.732;2022-10-31T03:32:42;98772.84;;;7.37;100.00
36242;BME280;22283;42.748;12.732;2022-10-31T03:37:48;98771.53;;;7.46;100.00
36242;BME280;22283;42.748;12.732;2022-10-31T03:43:00;98775.47;;;7.37;100.00
36242;BME280;22283;42.748;12.732;2022-10-31T03:48:06;98771.34;;;7.31;100.00
36242;BME280;22283;42.748;12.732;2022-10-31T03:53:13;98784.59;;;7.30;100.00
36242;BME280;22283;42.748;12.732;2022-10-31T03:58:27;98779.56;;;7.25;100.00
36242;BME280;22283;42.748;12.732;2022-10-31T04:03:32;98773.38;;;7.26;100.00
36242;BME280;22283;42.748;12.732;2022-10-31T04:13:59;98776.94;;;7.25;100.00
36242;BME280;22283;42.748;12.732;2022-10-31T04:19:01;98792.88;;;7.22;100.00
36242;BME280;22283;42.748;12.732;2022-10-31T04:24:02;98791.31;;;7.18;100.00
36242;BME280;22283;42.748;12.732;2022-10-31T04:29:04;98788.22;;;7.10;100.00
36242;BME280;22283;42.748;12.732;2022-10-31T04:34:05;98788.50;;;7.04;100.00
36242;BME280;22283;42.748;12.732;2022-10-31T04:39:07;98792.19;;;7.00;100.00
36242;BME280;22283;42.748;12.732;2022-10-31T04:44:26;98801.03;;;6.99;100.00
36242;BME280;22283;42.748;12.732;2022-10-31T04:49:28;98791.00;;;6.88;100.00
36242;BME280;22283;42.748;12.732;2022-10-31T04:54:29;98794.34;;;6.92;100.00
36242;BME280;22283;42.748;12.732;2022-10-31T04:59:49;98800.69;;;6.87;100.00
36242;BME280;22283;42.748;12.732;2022-10-31T05:04:50;98809.94;;;6.77;100.00
36242;BME280;22283;42.748;12.732;2022-10-31T05:09:52;98818.09;;;6.71;100.00
36242;BME280;22283;42.748;12.732;2022-10-31T05:14:54;98823.38;;;6.71;100.00
36242;BME280;22283;42.748;12.732;2022-10-31T05:20:14;98814.41;;;6.75;100.00
36242;BME280;22283;42.748;12.732;2022-10-31T05:25:35;98812.41;;;6.80;100.00
36242;BME280;22283;42.748;12.732;2022-10-31T05:30:38;98815.34;;;6.74;100.00
36242;BME280;22283;42.748;12.732;2022-10-31T05:35:42;98814.41;;;6.75;100.00
36242;BME280;22283;42.748;12.732;2022-10-31T05:41:02;98814.28;;;6.78;100.00
36242;BME280;22283;42.748;12.732;2022-10-31T05:46:05;98824.94;;;6.75;100.00
36242;BME280;22283;42.748;12.732;2022-10-31T05:51:24;98818.91;;;6.73;100.00
36242;BME280;22283;42.748;12.732;2022-10-31T05:56:25;98804.25;;;6.68;100.00
36242;BME280;22283;42.748;12.732;2022-10-31T06:01:26;98816.41;;;6.70;100.00
36242;BME280;22283;42.748;12.732;2022-10-31T06:06:26;98817.44;;;6.85;100.00
36242;BME280;22283;42.748;12.732;2022-10-31T06:11:27;98818.50;;;7.00;100.00
36242;BME280;22283;42.748;12.732;2022-10-31T06:16:48;98830.16;;;7.13;100.00
36242;BME280;22283;42.748;12.732;2022-10-31T06:22:13;98831.19;;;7.28;100.00
36242;BME280;22283;42.748;12.732;2022-10-31T06:27:14;98825.56;;;7.35;100.00
36242;BME280;22283;42.748;12.732;2022-10-31T06:32:16;98835.56;;;7.63;100.00
36242;BME280;22283;42.748;12.732;2022-10-31T06:37:18;98844.97;;;8.04;100.00
36242;BME280;22283;42.748;12.732;2022-10-31T06:42:22;98848.25;;;8.42;100.00
36242;BME280;22283;42.748;12.732;2022-10-31T06:47:23;98853.34;;;8.78;100.00
36242;BME280;22283;42.748;12.732;2022-10-31T06:52:50;98844.69;;;9.08;100.00
36242;BME280;22283;42.748;12.732;2022-10-31T06:57:56;98858.19;;;9.49;100.00
36242;BME280;22283;42.748;12.732;2022-10-31T07:03:01;98852.34;;;9.74;100.00
36242;BME280;22283;42.748;12.732;2022-10-31T07:08:06;98859.28;;;9.91;100.00
36242;BME280;22283;42.748;12.732;2022-10-31T07:13:13;98866.78;;;10.13;100.00
36242;BME280;22283;42.748;12.732;2022-10-31T07:18:19;98871.06;;;10.16;100.00
36242;BME280;22283;42.748;12.732;2022-10-31T07:23:21;98871.22;;;10.43;100.00
36242;BME280;22283;42.748;12.732;2022-10-31T07:28:42;98872.19;;;10.70;100.00
36242;BME280;22283;42.748;12.732;2022-10-31T07:33:45;98878.22;;;11.01;98.30
36242;BME280;22283;42.748;12.732;2022-10-31T07:39:12;98885.16;;;11.30;98.15
36242;BME280;22283;42.748;12.732;2022-10-31T07:44:12;98880.72;;;11.58;95.65
36242;BME280;22283;42.748;12.732;2022-10-31T07:49:36;98887.66;;;11.73;95.51
36242;BME280;22283;42.748;12.732;2022-10-31T07:54:55;98878.94;;;11.86;93.61
36242;BME280;22283;42.748;12.732;2022-10-31T07:59:57;98881.75;;;12.10;92.08
36242;BME280;22283;42.748;12.732;2022-10-31T08:04:58;98881.97;;;12.19;91.15
36242;BME280;22283;42.748;12.732;2022-10-31T08:10:06;98886.47;;;12.32;91.13
36242;BME280;22283;42.748;12.732;2022-10-31T08:15:08;98890.69;;;12.47;88.88
36242;BME280;22283;42.748;12.732;2022-10-31T08:20:09;98887.75;;;12.64;88.58
36242;BME280;22283;42.748;12.732;2022-10-31T08:25:18;98875.50;;;12.74;86.07
36242;BME280;22283;42.748;12.732;2022-10-31T08:30:20;98886.19;;;12.98;86.03
36242;BME280;22283;42.748;12.732;2022-10-31T08:35:40;98889.38;;;13.16;84.75
36242;BME280;22283;42.748;12.732;2022-10-31T08:40:59;98888.19;;;13.33;83.55
36242;BME280;22283;42.748;12.732;2022-10-31T08:46:00;98879.94;;;13.49;83.13
36242;BME280;22283;42.748;12.732;2022-10-31T08:51:03;98885.38;;;13.71;80.94
36242;BME280;22283;42.748;12.732;2022-10-31T08:56:05;98884.13;;;13.88;78.69
36242;BME280;22283;42.748;12.732;2022-10-31T09:01:05;98884.56;;;14.06;77.07
36242;BME280;22283;42.748;12.732;2022-10-31T09:06:06;98875.91;;;14.26;75.98
36242;BME280;22283;42.748;12.732;2022-10-31T09:11:09;98874.91;;;14.51;74.91
36242;BME280;22283;42.748;12.732;2022-10-31T09:16:36;98876.03;;;14.94;72.63
36242;BME280;22283;42.748;12.732;2022-10-31T09:21:39;98871.41;;;15.18;71.63
36242;BME280;22283;42.748;12.732;2022-10-31T09:26:41;98866.53;;;15.35;70.94
36242;BME280;22283;42.748;12.732;2022-10-31T09:31:49;98863.81;;;15.57;69.79
36242;BME280;22283;42.748;12.732;2022-10-31T09:37:02;98853.75;;;15.72;68.32
36242;BME280;22283;42.748;12.732;2022-10-31T09:42:34;98851.09;;;15.93;65.12
36242;BME280;22283;42.748;12.732;2022-10-31T09:53:27;98854.06;;;16.32;61.04
36242;BME280;22283;42.748;12.732;2022-10-31T09:58:32;98857.88;;;16.60;59.97
36242;BME280;22283;42.748;12.732;2022-10-31T10:03:40;98845.22;;;16.83;59.38
36242;BME280;22283;42.748;12.732;2022-10-31T10:09:03;98842.06;;;17.08;58.44
36242;BME280;22283;42.748;12.732;2022-10-31T10:14:46;98844.22;;;17.34;61.51
36242;BME280;22283;42.748;12.732;2022-10-31T10:20:12;98845.81;;;17.46;62.10
36242;BME280;22283;42.748;12.732;2022-10-31T10:25:20;98844.41;;;17.61;61.08
36242;BME280;22283;42.748;12.732;2022-10-31T10:30:40;98834.84;;;17.68;60.99
36242;BME280;22283;42.748;12.732;2022-10-31T10:35:59;98829.25;;;17.81;59.65
36242;BME280;22283;42.748;12.732;2022-10-31T10:41:02;98824.59;;;17.93;59.36
36242;BME280;22283;42.748;12.732;2022-10-31T10:51:51;98829.66;;;18.15;57.70
36242;BME280;22283;42.748;12.732;2022-10-31T11:02:23;98821.59;;;18.25;56.55
36242;BME280;22283;42.748;12.732;2022-10-31T11:07:24;98815.53;;;18.33;55.70
36242;BME280;22283;42.748;12.732;2022-10-31T11:12:30;98811.69;;;18.45;55.13
36242;BME280;22283;42.748;12.732;2022-10-31T11:17:34;98800.06;;;18.64;54.13
36242;BME280;22283;42.748;12.732;2022-10-31T11:22:36;98803.44;;;18.76;53.02
36242;BME280;22283;42.748;12.732;2022-10-31T11:27:37;98790.66;;;18.97;51.97
36242;BME280;22283;42.748;12.732;2022-10-31T11:32:43;98786.59;;;19.11;51.27
36242;BME280;22283;42.748;12.732;2022-10-31T11:37:49;98780.56;;;19.27;50.41
36242;BME280;22283;42.748;12.732;2022-10-31T11:42:52;98776.84;;;19.37;50.36
36242;BME280;22283;42.748;12.732;2022-10-31T11:47:56;98773.16;;;19.56;49.22
36242;BME280;22283;42.748;12.732;2022-10-31T11:52:57;98774.03;;;19.75;47.32
36242;BME280;22283;42.748;12.732;2022-10-31T11:57:57;98772.25;;;19.83;47.75
36242;BME280;22283;42.748;12.732;2022-10-31T12:03:31;98769.19;;;19.96;46.03
36242;BME280;22283;42.748;12.732;2022-10-31T12:08:35;98763.88;;;20.04;45.35
36242;BME280;22283;42.748;12.732;2022-10-31T12:13:50;98756.69;;;20.13;45.19
36242;BME280;22283;42.748;12.732;2022-10-31T12:24:37;98746.97;;;20.46;42.17
36242;BME280;22283;42.748;12.732;2022-10-31T12:45:43;98733.25;;;20.83;43.34
36242;BME280;22283;42.748;12.732;2022-10-31T12:51:11;98734.75;;;20.86;44.33
36242;BME280;22283;42.748;12.732;2022-10-31T13:01:50;98731.41;;;20.92;45.42
36242;BME280;22283;42.748;12.732;2022-10-31T13:06:59;98727.41;;;20.96;44.13
36242;BME280;22283;42.748;12.732;2022-10-31T13:12:20;98732.81;;;21.04;43.68
36242;BME280;22283;42.748;12.732;2022-10-31T13:17:30;98731.13;;;21.11;43.43
36242;BME280;22283;42.748;12.732;2022-10-31T13:22:32;98721.69;;;20.99;40.23
36242;BME280;22283;42.748;12.732;2022-10-31T13:27:55;98726.41;;;21.05;42.31
36242;BME280;22283;42.748;12.732;2022-10-31T13:38:38;98719.34;;;21.04;43.79
36242;BME280;22283;42.748;12.732;2022-10-31T13:49:25;98712.97;;;21.05;40.91
36242;BME280;22283;42.748;12.732;2022-10-31T13:54:36;98716.47;;;21.06;42.42
36242;BME280;22283;42.748;12.732;2022-10-31T13:59:37;98718.34;;;21.13;42.42
36242;BME280;22283;42.748;12.732;2022-10-31T14:04:46;98711.81;;;21.16;43.30
36242;BME280;22283;42.748;12.732;2022-10-31T14:10:06;98711.63;;;21.09;43.75
36242;BME280;22283;42.748;12.732;2022-10-31T14:15:20;98714.63;;;21.06;43.11
36242;BME280;22283;42.748;12.732;2022-10-31T14:20:26;98709.44;;;21.05;44.11
36242;BME280;22283;42.748;12.732;2022-10-31T14:25:35;98708.59;;;21.04;44.83
36242;BME280;22283;42.748;12.732;2022-10-31T14:30:36;98711.59;;;20.93;45.68
36242;BME280;22283;42.748;12.732;2022-10-31T14:36:35;98702.34;;;20.87;46.60
36242;BME280;22283;42.748;12.732;2022-10-31T14:51:45;98720.03;;;19.78;50.43
36242;BME280;22283;42.748;12.732;2022-10-31T14:56:54;98709.75;;;19.37;51.46
36242;BME280;22283;42.748;12.732;2022-10-31T15:02:01;98716.94;;;19.01;52.75
36242;BME280;22283;42.748;12.732;2022-10-31T15:12:27;98722.28;;;18.46;55.88
36242;BME280;22283;42.748;12.732;2022-10-31T15:17:27;98725.94;;;18.17;58.31
36242;BME280;22283;42.748;12.732;2022-10-31T15:22:29;98711.19;;;17.94;62.88
36242;BME280;22283;42.748;12.732;2022-10-31T15:27:31;98717.97;;;17.59;66.28
36242;BME280;22283;42.748;12.732;2022-10-31T15:32:33;98714.03;;;17.25;67.64
36242;BME280;22283;42.748;12.732;2022-10-31T15:37:34;98712.91;;;17.08;67.97
36242;BME280;22283;42.748;12.732;2022-10-31T15:42:39;98712.16;;;16.86;69.33
36242;BME280;22283;42.748;12.732;2022-10-31T15:48:15;98711.69;;;16.71;69.97
36242;BME280;22283;42.748;12.732;2022-10-31T15:53:23;98708.22;;;16.50;71.55
36242;BME280;22283;42.748;12.732;2022-10-31T15:58:25;98715.44;;;16.59;70.09
36242;BME280;22283;42.748;12.732;2022-10-31T16:03:29;98717.81;;;16.53;70.08
36242;BME280;22283;42.748;12.732;2022-10-31T16:13:33;98732.19;;;15.79;76.01
36242;BME280;22283;42.748;12.732;2022-10-31T16:18:36;98730.25;;;15.49;78.37
36242;BME280;22283;42.748;12.732;2022-10-31T16:23:44;98731.31;;;15.25;80.32
36242;BME280;22283;42.748;12.732;2022-10-31T16:28:56;98734.72;;;15.16;80.24
36242;BME280;22283;42.748;12.732;2022-10-31T16:34:20;98735.63;;;15.06;80.75
36242;BME280;22283;42.748;12.732;2022-10-31T16:39:21;98740.88;;;14.85;82.96
36242;BME280;22283;42.748;12.732;2022-10-31T16:44:24;98755.69;;;14.66;84.44
36242;BME280;22283;42.748;12.732;2022-10-31T16:49:25;98748.41;;;14.68;84.18
36242;BME280;22283;42.748;12.732;2022-10-31T16:54:28;98748.84;;;14.85;82.63
36242;BME280;22283;42.748;12.732;2022-10-31T16:59:29;98755.19;;;14.72;83.33
36242;BME280;22283;42.748;12.732;2022-10-31T17:04:31;98760.28;;;14.64;83.81
36242;BME280;22283;42.748;12.732;2022-10-31T17:09:32;98765.22;;;14.46;84.65
36242;BME280;22283;42.748;12.732;2022-10-31T17:14:33;98762.44;;;14.25;85.30
36242;BME280;22283;42.748;12.732;2022-10-31T17:19:34;98779.22;;;14.03;86.69
36242;BME280;22283;42.748;12.732;2022-10-31T17:24:36;98779.06;;;13.83;88.34
36242;BME280;22283;42.748;12.732;2022-10-31T17:29:36;98784.72;;;13.78;88.55
36242;BME280;22283;42.748;12.732;2022-10-31T17:34:37;98784.09;;;13.74;87.96
36242;BME280;22283;42.748;12.732;2022-10-31T17:39:37;98799.28;;;13.61;88.51
36242;BME280;22283;42.748;12.732;2022-10-31T17:44:38;98785.66;;;13.42;89.05
36242;BME280;22283;42.748;12.732;2022-10-31T17:49:39;98791.94;;;13.41;89.06
36242;BME280;22283;42.748;12.732;2022-10-31T17:54:39;98802.06;;;13.36;89.20
36242;BME280;22283;42.748;12.732;2022-10-31T17:59:41;98795.78;;;13.37;88.91
36242;BME280;22283;42.748;12.732;2022-10-31T18:04:41;98790.34;;;13.62;86.40
36242;BME280;22283;42.748;12.732;2022-10-31T18:09:42;98796.63;;;13.61;86.25
36242;BME280;22283;42.748;12.732;2022-10-31T18:14:42;98799.13;;;13.51;86.22
36242;BME280;22283;42.748;12.732;2022-10-31T18:19:43;98798.84;;;13.43;86.39
36242;BME280;22283;42.748;12.732;2022-10-31T18:24:45;98801.72;;;13.40;86.19
36242;BME280;22283;42.748;12.732;2022-10-31T18:29:45;98789.22;;;13.29;86.94
36242;BME280;22283;42.748;12.732;2022-10-31T18:34:46;98777.13;;;13.25;86.81
36242;BME280;22283;42.748;12.732;2022-10-31T18:39:47;98775.63;;;13.21;86.54
36242;BME280;22283;42.748;12.732;2022-10-31T18:44:47;98772.91;;;13.10;86.99
36242;BME280;22283;42.748;12.732;2022-10-31T18:49:48;98770.84;;;12.90;87.67
36242;BME280;22283;42.748;12.732;2022-10-31T18:54:49;98769.00;;;12.79;89.18
36242;BME280;22283;42.748;12.732;2022-10-31T18:59:50;98772.63;;;12.65;89.75
36242;BME280;22283;42.748;12.732;2022-10-31T19:04:50;98779.44;;;12.57;90.29
36242;BME280;22283;42.748;12.732;2022-10-31T19:09:51;98777.22;;;12.63;90.06
36242;BME280;22283;42.748;12.732;2022-10-31T19:14:51;98780.28;;;12.57;90.14
36242;BME280;22283;42.748;12.732;2022-10-31T19:19:52;98790.38;;;12.39;91.66
36242;BME280;22283;42.748;12.732;2022-10-31T19:24:53;98792.63;;;12.33;92.11
36242;BME280;22283;42.748;12.732;2022-10-31T19:29:53;98778.41;;;12.08;93.19
36242;BME280;22283;42.748;12.732;2022-10-31T19:34:54;98790.50;;;12.12;94.29
36242;BME280;22283;42.748;12.732;2022-10-31T19:39:55;98787.84;;;12.25;93.22
36242;BME280;22283;42.748;12.732;2022-10-31T19:44:55;98791.56;;;12.22;93.95
36242;BME280;22283;42.748;12.732;2022-10-31T19:49:56;98794.13;;;12.37;92.11
36242;BME280;22283;42.748;12.732;2022-10-31T19:54:57;98795.38;;;12.44;91.21
36242;BME280;22283;42.748;12.732;2022-10-31T19:59:57;98792.63;;;12.45;90.74
36242;BME280;22283;42.748;12.732;2022-10-31T20:04:58;98800.16;;;12.39;90.84
36242;BME280;22283;42.748;12.732;2022-10-31T20:09:59;98806.63;;;12.22;92.25
36242;BME280;22283;42.748;12.732;2022-10-31T20:15:00;98810.56;;;12.16;92.29
36242;BME280;22283;42.748;12.732;2022-10-31T20:20:01;98817.31;;;11.95;93.77
36242;BME280;22283;42.748;12.732;2022-10-31T20:25:08;98823.94;;;11.75;95.50
36242;BME280;22283;42.748;12.732;2022-10-31T20:30:08;98829.84;;;11.66;96.27
36242;BME280;22283;42.748;12.732;2022-10-31T20:35:09;98822.69;;;11.80;94.55
36242;BME280;22283;42.748;12.732;2022-10-31T20:40:10;98834.53;;;11.75;94.99
36242;BME280;22283;42.748;12.732;2022-10-31T20:45:11;98831.13;;;11.60;95.43
36242;BME280;22283;42.748;12.732;2022-10-31T20:50:12;98834.06;;;11.55;95.55
36242;BME280;22283;42.748;12.732;2022-10-31T20:55:13;98823.50;;;11.68;94.26
36242;BME280;22283;42.748;12.732;2022-10-31T21:00:13;98836.97;;;11.65;94.29
36242;BME280;22283;42.748;12.732;2022-10-31T21:05:14;98830.75;;;11.52;94.67
36242;BME280;22283;42.748;12.732;2022-10-31T21:10:15;98831.16;;;11.73;93.21
36242;BME280;22283;42.748;12.732;2022-10-31T21:15:16;98837.63;;;11.81;91.74
36242;BME280;22283;42.748;12.732;2022-10-31T21:20:16;98835.28;;;11.64;92.64
36242;BME280;22283;42.748;12.732;2022-10-31T21:25:17;98838.31;;;11.58;93.54
36242;BME280;22283;42.748;12.732;2022-10-31T21:30:17;98830.91;;;11.63;92.38
36242;BME280;22283;42.748;12.732;2022-10-31T21:35:18;98841.91;;;11.57;93.13
36242;BME280;22283;42.748;12.732;2022-10-31T21:40:19;98836.72;;;11.55;92.80
36242;BME280;22283;42.748;12.732;2022-10-31T21:45:19;98843.16;;;11.51;93.11
36242;BME280;22283;42.748;12.732;2022-10-31T21:50:20;98845.97;;;11.36;93.95
36242;BME280;22283;42.748;12.732;2022-10-31T21:55:22;98834.50;;;11.35;94.18
36242;BME280;22283;42.748;12.732;2022-10-31T22:00:23;98840.16;;;11.16;95.08
36242;BME280;22283;42.748;12.732;2022-10-31T22:05:23;98840.75;;;11.07;96.37
36242;BME280;22283;42.748;12.732;2022-10-31T22:10:24;98846.41;;;11.15;95.85
36242;BME280;22283;42.748;12.732;2022-10-31T22:15:24;98852.19;;;11.07;96.09
36242;BME280;22283;42.748;12.732;2022-10-31T22:20:25;98859.88;;;10.98;97.14
36242;BME280;22283;42.748;12.732;2022-10-31T22:25:26;98873.19;;;10.96;98.25
36242;BME280;22283;42.748;12.732;2022-10-31T22:30:26;98858.91;;;10.84;98.27
36242;BME280;22283;42.748;12.732;2022-10-31T22:35:27;98853.66;;;10.70;99.06
36242;BME280;22283;42.748;12.732;2022-10-31T22:40:28;98870.75;;;10.65;100.00
36242;BME280;22283;42.748;12.732;2022-10-31T22:45:28;98860.84;;;10.54;100.00
36242;BME280;22283;42.748;12.732;2022-10-31T22:50:29;98859.03;;;10.40;100.00
36242;BME280;22283;42.748;12.732;2022-10-31T22:55:30;98861.50;;;10.43;100.00
36242;BME280;22283;42.748;12.732;2022-10-31T23:00:30;98861.59;;;10.42;100.00
36242;BME280;22283;42.748;12.732;2022-10-31T23:05:31;98868.47;;;10.30;100.00
36242;BME280;22283;42.748;12.732;2022-10-31T23:10:32;98870.72;;;10.36;100.00
36242;BME280;22283;42.748;12.732;2022-10-31T23:15:36;98871.38;;;10.25;100.00
36242;BME280;22283;42.748;12.732;2022-10-31T23:20:37;98864.34;;;10.10;100.00
36242;BME280;22283;42.748;12.732;2022-10-31T23:25:37;98875.66;;;10.12;100.00
36242;BME280;22283;42.748;12.732;2022-10-31T23:30:57;98873.66;;;10.01;100.00
36242;BME280;22283;42.748;12.732;2022-10-31T23:35:57;98876.28;;;10.01;100.00
36242;BME280;22283;42.748;12.732;2022-10-31T23:40:58;98868.16;;;9.90;100.00
36242;BME280;22283;42.748;12.732;2022-10-31T23:45:59;98868.25;;;9.89;100.00
36242;BME280;22283;42.748;12.732;2022-10-31T23:50:59;98863.72;;;9.91;100.00
36242;BME280;22283;42.748;12.732;2022-10-31T23:56:00;98859.19;;;9.93;100.00
